Time;durP1;ratioP1;P1;durP2;ratioP2;P2;SDS_P1;SDS_P2;PMS_P1;PMS_P2;Temp;Humidity;BMP_temperature;BMP_pressure;BME280_temperature;BME280_humidity;BME280_pressure;Samples;Min_cycle;Max_cycle;Signal;HPM_P1;HPM_P2
2021/01/22 00:02:30;;;;;;;9.53;5.40;;;;;;;-2.26;100.00;100540.52;1696774;84;21057;-77
2021/01/22 00:04:58;;;;;;;16.60;9.77;;;;;;;-2.23;100.00;100533.72;1696777;84;21389;-77
2021/01/22 00:07:26;;;;;;;13.77;8.00;;;;;;;-2.16;100.00;100540.42;1696829;84;21638;-77
2021/01/22 00:09:53;;;;;;;11.83;6.27;;;;;;;-2.09;100.00;100528.58;1695408;84;21008;-76
2021/01/22 00:12:21;;;;;;;14.77;7.67;;;;;;;-2.04;100.00;100524.38;1692891;84;21009;-77
2021/01/22 00:14:49;;;;;;;10.57;6.80;;;;;;;-2.00;100.00;100533.88;1675603;85;21220;-76
2021/01/22 00:17:17;;;;;;;7.30;6.07;;;;;;;-1.99;100.00;100528.50;1693001;84;21398;-77
2021/01/22 00:19:44;;;;;;;6.47;4.40;;;;;;;-1.97;100.00;100511.20;1693018;84;21641;-76
2021/01/22 00:22:12;;;;;;;11.63;6.57;;;;;;;-1.97;100.00;100513.84;1675529;85;21058;-77
2021/01/22 00:24:40;;;;;;;9.50;5.03;;;;;;;-1.97;100.00;100518.67;1692984;83;21545;-76
2021/01/22 00:27:08;;;;;;;9.83;6.17;;;;;;;-1.96;100.00;100520.40;1693651;84;20965;-76
2021/01/22 00:29:36;;;;;;;12.37;7.07;;;;;;;-1.92;100.00;100506.52;1676614;85;21198;-76
2021/01/22 00:32:04;;;;;;;9.87;5.20;;;;;;;-1.91;100.00;100508.24;1694349;84;21059;-76
2021/01/22 00:34:32;;;;;;;10.90;6.77;;;;;;;-1.87;100.00;100507.61;1728669;81;20983;-76
2021/01/22 00:37:00;;;;;;;14.83;6.83;;;;;;;-1.84;100.00;100508.76;1760560;80;20952;-76
2021/01/22 00:39:29;;;;;;;8.57;5.27;;;;;;;-1.81;100.00;100508.60;1759887;81;21001;-77
2021/01/22 00:41:56;;;;;;;6.67;4.17;;;;;;;-1.81;100.00;100497.52;1754162;81;21252;-77
2021/01/22 00:44:24;;;;;;;9.47;4.87;;;;;;;-1.78;100.00;100497.37;1765917;81;21044;-77
2021/01/22 00:46:52;;;;;;;5.20;4.47;;;;;;;-1.74;100.00;100491.44;1765944;81;21052;-77
2021/01/22 00:49:20;;;;;;;10.80;5.63;;;;;;;-1.73;100.00;100498.47;1765981;81;20929;-76
2021/01/22 00:51:47;;;;;;;6.30;4.20;;;;;;;-1.70;100.00;100486.34;1766002;81;21538;-77
2021/01/22 00:54:15;;;;;;;6.80;4.77;;;;;;;-1.68;100.00;100492.89;1765884;81;21277;-77
2021/01/22 00:56:48;;;;;;;7.05;4.70;;;;;;;-1.67;100.00;100500.77;1674391;85;21020;-77
2021/01/22 00:59:15;;;;;;;6.87;4.33;;;;;;;-1.63;100.00;100496.16;1674243;85;21083;-76
2021/01/22 01:01:53;;;;;;;6.23;4.37;;;;;;;-1.58;100.00;100491.47;1890119;76;26232;-77
2021/01/22 01:04:21;;;;;;;8.23;5.50;;;;;;;-1.60;100.00;100490.22;1861039;77;20978;-77
2021/01/22 01:06:53;;;;;;;4.60;4.17;;;;;;;-1.54;100.00;100492.56;1723759;83;21210;-77
2021/01/22 01:09:21;;;;;;;11.50;4.33;;;;;;;-1.50;100.00;100488.42;1723732;83;21508;-77
2021/01/22 01:12:00;;;;;;;8.43;5.13;;;;;;;-1.47;100.00;100482.48;1720147;83;20910;-77
2021/01/22 01:14:39;;;;;;;7.30;4.57;;;;;;;-1.42;100.00;100477.76;1720018;83;21065;-78
2021/01/22 01:17:07;;;;;;;6.37;4.30;;;;;;;-1.36;100.00;100480.57;1723642;83;21005;-78
2021/01/22 01:19:35;;;;;;;5.97;3.07;;;;;;;-1.31;100.00;100481.63;1723627;83;22526;-78
2021/01/22 01:22:02;;;;;;;3.83;3.43;;;;;;;-1.27;100.00;100481.38;1723677;83;20969;-78
2021/01/22 01:24:30;;;;;;;6.93;4.17;;;;;;;-1.22;100.00;100475.36;1723732;83;21009;-78
2021/01/22 01:26:58;;;;;;;5.20;4.20;;;;;;;-1.17;100.00;100474.63;1723585;83;21080;-78
2021/01/22 01:29:26;;;;;;;9.33;4.80;;;;;;;-1.13;100.00;100471.34;1723577;83;21057;-79
2021/01/22 01:31:54;;;;;;;4.43;3.57;;;;;;;-1.08;100.00;100478.57;1723601;83;21295;-79
2021/01/22 01:34:22;;;;;;;5.87;4.63;;;;;;;-1.00;100.00;100471.50;1723592;83;21561;-79
2021/01/22 01:36:49;;;;;;;4.23;3.30;;;;;;;-0.93;100.00;100468.88;1723659;83;21023;-78
2021/01/22 01:39:17;;;;;;;4.07;3.50;;;;;;;-0.89;100.00;100471.73;1723550;83;21586;-79
2021/01/22 01:41:45;;;;;;;5.53;3.97;;;;;;;-0.84;100.00;100472.33;1723532;83;21077;-79
2021/01/22 01:44:13;;;;;;;8.93;5.03;;;;;;;-0.81;100.00;100473.48;1723572;83;21918;-79
2021/01/22 01:46:42;;;;;;;4.30;3.30;;;;;;;-0.81;100.00;100473.48;1723603;83;21555;-79
2021/01/22 01:49:10;;;;;;;8.10;3.70;;;;;;;-0.82;100.00;100467.78;1723522;83;20985;-79
2021/01/22 01:51:39;;;;;;;9.40;5.37;;;;;;;-0.81;100.00;100470.83;1723598;82;21029;-79
2021/01/22 01:54:06;;;;;;;6.67;3.00;;;;;;;-0.77;100.00;100474.17;1709901;83;21593;-79
2021/01/22 01:56:34;;;;;;;7.63;4.57;;;;;;;-0.74;100.00;100473.12;1699723;83;21350;-79
2021/01/22 01:59:02;;;;;;;6.80;3.53;;;;;;;-0.72;100.00;100469.94;1693990;83;21013;-79
2021/01/22 02:01:30;;;;;;;7.10;3.60;;;;;;;-0.69;100.00;100468.41;1715216;82;21234;-79
2021/01/22 02:03:58;;;;;;;4.27;2.90;;;;;;;-0.67;100.00;100469.20;1788066;78;21015;-79
2021/01/22 02:06:25;;;;;;;2.40;1.87;;;;;;;-0.65;100.00;100464.65;1827173;78;21035;-79
2021/01/22 02:08:53;;;;;;;6.43;4.00;;;;;;;-0.62;100.00;100460.46;1827130;78;22374;-79
2021/01/22 02:11:21;;;;;;;6.37;4.07;;;;;;;-0.60;100.00;100462.58;1826845;78;21015;-79
2021/01/22 02:13:48;;;;;;;7.27;4.40;;;;;;;-0.55;100.00;100458.31;1794916;78;20987;-79
2021/01/22 02:16:18;;;;;;;7.30;3.63;;;;;;;-0.53;100.00;100455.97;1795418;78;20996;-79
2021/01/22 02:18:45;;;;;;;4.33;2.20;;;;;;;-0.49;100.00;100464.13;1826612;78;21587;-80
2021/01/22 02:21:33;;;;;;;6.70;4.10;;;;;;;-0.43;100.00;100460.25;1826448;78;21190;-79
2021/01/22 02:24:08;;;;;;;6.47;4.33;;;;;;;-0.37;100.00;100459.03;1826395;78;21012;-79
2021/01/22 02:27:04;;;;;;;4.23;3.27;;;;;;;-0.34;100.00;100457.05;1825484;78;21023;-78
2021/01/22 02:29:33;;;;;;;5.73;4.33;;;;;;;-0.31;100.00;100448.89;1826568;78;20865;-78
2021/01/22 02:32:04;;;;;;;4.63;3.03;;;;;;;-0.29;100.00;100450.98;1826454;78;21529;-79
2021/01/22 02:34:37;;;;;;;5.67;3.70;;;;;;;-0.24;100.00;100445.41;1826536;78;21545;-79
2021/01/22 02:37:04;;;;;;;3.60;2.97;;;;;;;-0.21;100.00;100431.45;1825842;78;21366;-78
2021/01/22 02:39:45;;;;;;;4.63;2.93;;;;;;;-0.18;100.00;100441.03;1826490;78;21063;-79
2021/01/22 02:42:22;;;;;;;6.73;3.73;;;;;;;-0.12;100.00;100437.17;1845365;76;25675;-80
2021/01/22 02:44:55;;;;;;;6.23;3.77;;;;;;;-0.14;100.00;100436.39;1759224;79;21014;-80
2021/01/22 02:47:24;;;;;;;6.12;3.67;;;;;;;-0.13;100.00;100432.31;1758218;81;21202;-79
2021/01/22 02:49:52;;;;;;;6.90;3.27;;;;;;;-0.11;100.00;100433.55;1758425;81;21103;-80
2021/01/22 02:52:19;;;;;;;7.67;3.83;;;;;;;-0.11;100.00;100431.73;1758166;81;21004;-80
2021/01/22 02:54:50;;;;;;;5.90;3.53;;;;;;;-0.08;100.00;100439.54;1758352;81;20984;-80
2021/01/22 02:57:35;;;;;;;4.60;3.40;;;;;;;-0.06;100.00;100434.13;1758997;79;21005;-79
2021/01/22 03:00:23;;;;;;;5.90;3.90;;;;;;;-0.03;100.00;100433.47;1806132;79;21377;-80
2021/01/22 03:03:34;;;;;;;7.53;4.00;;;;;;;0.02;100.00;100431.88;1809000;79;21017;-79
2021/01/22 03:06:02;;;;;;;8.10;4.57;;;;;;;0.04;100.00;100427.80;1809077;79;21056;-78
2021/01/22 03:08:30;;;;;;;6.83;3.57;;;;;;;0.06;100.00;100428.55;1808998;79;20916;-78
2021/01/22 03:10:59;;;;;;;7.90;4.07;;;;;;;0.08;100.00;100427.98;1809062;79;21582;-79
2021/01/22 03:13:27;;;;;;;6.40;3.30;;;;;;;0.10;100.00;100428.73;1782865;79;21322;-79
2021/01/22 03:15:55;;;;;;;8.23;5.20;;;;;;;0.16;100.00;100431.00;1808800;79;21071;-79
2021/01/22 03:18:23;;;;;;;15.83;7.67;;;;;;;0.22;100.00;100426.64;1809004;79;21080;-78
2021/01/22 03:20:51;;;;;;;19.40;8.70;;;;;;;0.24;100.00;100434.53;1808929;79;21534;-78
2021/01/22 03:23:19;;;;;;;17.03;8.13;;;;;;;0.24;100.00;100424.73;1809054;79;20998;-79
2021/01/22 03:25:47;;;;;;;19.83;8.50;;;;;;;0.23;100.00;100424.83;1808982;79;21156;-78
2021/01/22 03:28:15;;;;;;;11.17;6.70;;;;;;;0.21;100.00;100424.92;1808714;79;21744;-77
2021/01/22 03:30:43;;;;;;;14.67;7.93;;;;;;;0.18;100.00;100427.31;1809087;79;21061;-77
2021/01/22 03:33:11;;;;;;;13.53;6.70;;;;;;;0.19;100.00;100426.83;1809044;79;21676;-77
2021/01/22 03:35:40;;;;;;;11.10;6.73;;;;;;;0.17;100.00;100432.72;1808953;79;20978;-76
2021/01/22 03:38:07;;;;;;;10.63;5.70;;;;;;;0.13;100.00;100432.05;1808962;79;21286;-75
2021/01/22 03:40:35;;;;;;;11.70;6.47;;;;;;;0.10;100.00;100431.39;1811495;77;20966;-76
2021/01/22 03:43:03;;;;;;;10.93;5.70;;;;;;;0.08;100.00;100427.98;1860811;77;21172;-75
2021/01/22 03:45:31;;;;;;;7.03;4.03;;;;;;;0.05;100.00;100431.66;1860836;77;20921;-75
2021/01/22 03:47:59;;;;;;;8.67;5.03;;;;;;;0.03;100.00;100434.05;1860818;77;20980;-77
2021/01/22 03:50:27;;;;;;;12.10;5.43;;;;;;;0.00;100.00;100433.77;1860755;77;21194;-76
2021/01/22 03:52:55;;;;;;;9.90;4.33;;;;;;;-0.02;100.00;100434.31;1860392;77;20961;-76
2021/01/22 03:55:22;;;;;;;6.13;3.60;;;;;;;0.01;100.00;100433.29;1859673;77;21029;-76
2021/01/22 03:57:51;;;;;;;5.23;3.00;;;;;;;0.00;100.00;100429.78;1848035;77;21017;-76
2021/01/22 04:00:19;;;;;;;6.97;4.03;;;;;;;0.01;100.00;100428.82;1733926;82;20895;-76
2021/01/22 04:02:47;;;;;;;7.27;3.57;;;;;;;0.02;100.00;100428.34;1769449;81;21418;-76
2021/01/22 04:05:15;;;;;;;7.70;3.20;;;;;;;0.03;100.00;100428.73;1733576;82;21041;-76
2021/01/22 04:07:43;;;;;;;5.13;3.40;;;;;;;0.02;100.00;100430.99;1769424;81;21028;-76
2021/01/22 04:10:11;;;;;;;4.67;3.20;;;;;;;0.02;100.00;100427.88;1769325;81;21775;-76
2021/01/22 04:12:39;;;;;;;7.83;4.03;;;;;;;0.01;100.00;100420.84;1733642;82;20934;-76
2021/01/22 04:15:08;;;;;;;2.47;2.27;;;;;;;-0.04;100.00;100419.78;1769461;81;21398;-76
2021/01/22 04:17:36;;;;;;;5.07;2.83;;;;;;;-0.06;100.00;100415.04;1733618;82;21045;-75
2021/01/22 04:20:07;;;;;;;4.73;4.13;;;;;;;-0.07;100.00;100418.66;1769298;81;20981;-76
2021/01/22 04:22:34;;;;;;;6.83;3.57;;;;;;;-0.06;100.00;100411.53;1769276;81;20997;-75
2021/01/22 04:25:05;;;;;;;4.77;3.23;;;;;;;-0.07;100.00;100415.12;1733692;81;21097;-75
2021/01/22 04:27:33;;;;;;;4.80;3.60;;;;;;;-0.07;100.00;100421.33;1769434;81;22268;-69
2021/01/22 04:30:01;;;;;;;6.37;3.63;;;;;;;-0.06;100.00;100415.04;1733535;82;20962;-69
2021/01/22 04:32:29;;;;;;;5.07;2.80;;;;;;;-0.07;100.00;100420.45;1769193;81;21037;-69
2021/01/22 04:34:57;;;;;;;10.70;5.30;;;;;;;-0.06;100.00;100424.83;1733474;82;20958;-69
2021/01/22 04:37:25;;;;;;;5.90;3.80;;;;;;;-0.04;100.00;100423.77;1769429;81;21017;-69
2021/01/22 04:39:53;;;;;;;6.60;4.13;;;;;;;-0.02;100.00;100420.57;1733561;81;21154;-69
2021/01/22 04:42:22;;;;;;;7.47;3.80;;;;;;;0.01;100.00;100414.20;1771790;81;21029;-68
2021/01/22 04:44:50;;;;;;;8.63;4.27;;;;;;;0.04;100.00;100421.15;1739119;82;20949;-69
2021/01/22 04:47:18;;;;;;;14.97;7.13;;;;;;;0.05;100.00;100425.02;1769507;81;20941;-69
2021/01/22 04:49:50;;;;;;;18.43;10.57;;;;;;;0.06;100.00;100414.77;1739124;82;21004;-69
2021/01/22 04:52:18;;;;;;;18.07;9.30;;;;;;;0.09;100.00;100419.91;1761328;81;21343;-68
2021/01/22 04:54:48;;;;;;;15.50;6.73;;;;;;;0.12;100.00;100421.50;1739110;82;21008;-69
2021/01/22 04:57:16;;;;;;;17.97;7.77;;;;;;;0.14;100.00;100416.94;1740099;81;21009;-69
2021/01/22 04:59:51;;;;;;;14.77;5.57;;;;;;;0.17;100.00;100423.41;1740958;81;21558;-68
2021/01/22 05:02:19;;;;;;;11.70;6.80;;;;;;;0.18;100.00;100419.33;1771082;81;21513;-68
2021/01/22 05:04:47;;;;;;;13.57;7.27;;;;;;;0.20;100.00;100415.25;1771068;81;21210;-67
2021/01/22 05:07:15;;;;;;;10.80;5.73;;;;;;;0.24;100.00;100414.58;1741276;81;21038;-68
2021/01/22 05:09:43;;;;;;;9.03;4.87;;;;;;;0.27;100.00;100411.25;1771078;81;21218;-68
2021/01/22 05:12:13;;;;;;;4.73;3.43;;;;;;;0.29;100.00;100408.02;1771014;81;21007;-68
2021/01/22 05:14:41;;;;;;;7.67;4.60;;;;;;;0.32;100.00;100403.84;1771366;81;21047;-73
2021/01/22 05:17:10;;;;;;;6.73;4.37;;;;;;;0.35;100.00;100406.77;1771616;81;21587;-71
2021/01/22 05:19:42;;;;;;;7.23;3.70;;;;;;;0.42;100.00;100413.90;1771586;81;20964;-72
2021/01/22 05:22:18;;;;;;;6.07;3.80;;;;;;;0.48;100.00;100409.50;1705714;84;21013;-73
2021/01/22 05:24:46;;;;;;;5.03;3.33;;;;;;;0.55;100.00;100416.17;1683077;84;21139;-72
2021/01/22 05:27:14;;;;;;;8.03;4.70;;;;;;;0.56;100.00;100417.86;1705889;84;21594;-71
2021/01/22 05:29:43;;;;;;;9.37;4.70;;;;;;;0.59;100.00;100415.50;1705702;84;21660;-73
2021/01/22 05:32:31;;;;;;;9.30;4.50;;;;;;;0.59;100.00;100416.83;1705812;82;21004;-72
2021/01/22 05:35:08;;;;;;;5.97;3.87;;;;;;;0.60;100.00;100411.88;1846041;76;26773;-73
2021/01/22 05:37:51;;;;;;;5.00;3.37;;;;;;;0.54;100.00;100403.81;1815982;79;20904;-73
2021/01/22 05:40:21;;;;;;;4.28;3.15;;;;;;;0.54;100.00;100408.64;1816274;78;22727;-74
2021/01/22 05:42:52;;;;;;;6.20;3.83;;;;;;;0.55;100.00;100400.20;1815765;79;21453;-73
2021/01/22 05:45:44;;;;;;;7.23;4.23;;;;;;;0.58;100.00;100407.13;1816158;79;21015;-72
2021/01/22 05:48:20;;;;;;;9.27;4.57;;;;;;;0.58;100.00;100403.98;1728852;81;21008;-69
2021/01/22 05:50:54;;;;;;;8.77;3.97;;;;;;;0.59;100.00;100401.71;1728322;83;21032;-69
2021/01/22 05:53:22;;;;;;;8.30;4.03;;;;;;;0.58;100.00;100397.33;1728409;83;21505;-67
2021/01/22 05:56:06;;;;;;;8.87;5.47;;;;;;;0.61;100.00;100410.93;1728370;83;21028;-67
2021/01/22 06:01:44;;;;;;;12.60;5.62;;;;;;;0.67;100.00;100409.19;1752317;81;21013;-67
2021/01/22 06:04:12;;;;;;;10.27;5.00;;;;;;;0.67;100.00;100410.52;1743047;81;21201;-68
2021/01/22 06:06:40;;;;;;;7.53;4.30;;;;;;;0.70;100.00;100409.84;1743322;82;21176;-67
2021/01/22 06:09:08;;;;;;;7.43;4.07;;;;;;;0.76;100.00;100417.91;1741694;82;21077;-67
2021/01/22 06:11:39;;;;;;;5.57;3.53;;;;;;;0.80;100.00;100415.91;1741308;81;21101;-67
2021/01/22 06:14:08;;;;;;;11.47;5.30;;;;;;;0.83;100.00;100413.05;1734296;81;20954;-67
2021/01/22 06:16:36;;;;;;;15.20;7.30;;;;;;;0.85;100.00;100412.47;1732756;82;22141;-69
2021/01/22 06:19:11;;;;;;;8.13;4.70;;;;;;;0.86;100.00;100418.19;1738503;81;21063;-75
2021/01/22 06:22:01;;;;;;;5.83;4.23;;;;;;;0.86;100.00;100419.52;1746404;81;21071;-71
2021/01/22 06:24:29;;;;;;;6.60;3.93;;;;;;;0.91;100.00;100424.06;1686136;84;21084;-70
2021/01/22 06:26:57;;;;;;;5.30;3.67;;;;;;;0.94;100.00;100418.06;1683657;84;21026;-69
2021/01/22 06:29:25;;;;;;;6.53;4.10;;;;;;;0.97;100.00;100413.48;1682936;84;21469;-69
2021/01/22 06:32:04;;;;;;;6.70;4.27;;;;;;;1.03;100.00;100406.45;1845768;76;26626;-72
2021/01/22 06:34:33;;;;;;;11.93;6.33;;;;;;;1.01;100.00;100409.20;1811780;79;21462;-68
2021/01/22 06:37:02;;;;;;;6.50;4.07;;;;;;;1.03;100.00;100411.28;1784748;79;21739;-69
2021/01/22 06:39:31;;;;;;;10.67;5.00;;;;;;;1.05;100.00;100412.52;1783559;79;20928;-67
2021/01/22 06:42:03;;;;;;;12.60;5.67;;;;;;;1.06;100.00;100416.42;1815609;79;21593;-71
2021/01/22 06:44:31;;;;;;;11.00;6.60;;;;;;;1.08;100.00;100416.29;1815989;79;21051;-72
2021/01/22 06:47:05;;;;;;;5.50;3.93;;;;;;;1.08;100.00;100414.50;1816193;77;21482;-71
2021/01/22 06:49:34;;;;;;;12.13;5.20;;;;;;;1.11;100.00;100416.94;1812446;79;21138;-72
2021/01/22 06:52:13;;;;;;;5.23;3.77;;;;;;;1.10;100.00;100419.24;1815175;79;20968;-71
2021/01/22 06:55:03;;;;;;;7.00;4.33;;;;;;;1.12;100.00;100427.98;1815316;79;21020;-72
2021/01/22 06:57:32;;;;;;;5.47;3.67;;;;;;;1.12;100.00;100427.98;1803330;78;20987;-72
2021/01/22 07:00:01;;;;;;;8.80;4.27;;;;;;;1.12;100.00;100427.98;1806196;79;21016;-68
2021/01/22 07:02:36;;;;;;;6.47;3.70;;;;;;;1.10;100.00;100425.06;1800669;77;21254;-69
2021/01/22 07:05:28;;;;;;;10.10;4.77;;;;;;;1.09;100.00;100426.84;1829080;78;20981;-67
2021/01/22 07:07:56;;;;;;;5.07;3.50;;;;;;;1.08;100.00;100421.16;1733683;81;21034;-68
2021/01/22 07:11:18;;;;;;;8.43;4.53;;;;;;;1.06;100.00;100416.42;1731106;81;21182;-72
2021/01/22 07:13:53;;;;;;;19.57;8.23;;;;;;;1.10;100.00;100425.91;1845489;76;27934;-73
2021/01/22 07:16:23;;;;;;;13.50;5.07;;;;;;;1.10;100.00;100423.23;1831281;77;21012;-72
2021/01/22 07:18:59;;;;;;;14.97;6.03;;;;;;;1.13;100.00;100421.72;1839890;77;22359;-70
2021/01/22 07:21:36;;;;;;;9.90;3.90;;;;;;;1.15;100.00;100420.25;1831835;77;21000;-72
2021/01/22 07:24:08;;;;;;;10.30;5.03;;;;;;;1.14;100.00;100423.41;1836467;77;20978;-73
2021/01/22 07:26:40;;;;;;;11.60;6.10;;;;;;;1.13;100.00;100419.50;1829387;77;21051;-74
2021/01/22 07:29:19;;;;;;;20.83;10.17;;;;;;;1.12;100.00;100423.14;1853937;77;20997;-72
2021/01/22 07:32:04;;;;;;;18.57;9.00;;;;;;;1.11;100.00;100418.76;1826925;77;21375;-72
2021/01/22 07:34:50;;;;;;;14.47;6.43;;;;;;;1.08;100.00;100409.17;1815431;79;21024;-73
2021/01/22 07:37:22;;;;;;;6.83;3.63;;;;;;;1.07;100.00;100410.61;1827656;77;20973;-70
2021/01/22 07:39:53;;;;;;;6.50;3.47;;;;;;;1.08;100.00;100405.63;1710723;82;21662;-69
2021/01/22 07:42:28;;;;;;;11.43;6.00;;;;;;;1.10;100.00;100392.61;1872390;75;26881;-70
2021/01/22 07:45:13;;;;;;;4.37;3.63;;;;;;;1.07;100.00;100397.29;1842559;77;21008;-73
2021/01/22 07:47:45;;;;;;;9.20;4.50;;;;;;;1.08;100.00;100398.98;1829557;77;21031;-69
2021/01/22 07:50:21;;;;;;;10.60;5.00;;;;;;;1.08;100.00;100398.52;1801518;78;21041;-70
2021/01/22 07:52:49;;;;;;;6.87;4.03;;;;;;;1.09;100.00;100408.69;1797627;78;21499;-68
2021/01/22 07:55:21;;;;;;;7.13;4.20;;;;;;;1.08;100.00;100406.52;1794079;78;20982;-68
2021/01/22 07:58:04;;;;;;;10.57;5.27;;;;;;;1.10;100.00;100401.09;1720907;81;20970;-72
2021/01/22 08:00:39;;;;;;;8.30;4.30;;;;;;;1.10;100.00;100411.25;1752467;80;21292;-74
2021/01/22 08:03:08;;;;;;;8.90;5.03;;;;;;;1.12;100.00;100400.50;1728745;83;21020;-74
2021/01/22 08:05:38;;;;;;;12.13;4.53;;;;;;;1.11;100.00;100390.79;1729326;83;21028;-73
2021/01/22 08:08:19;;;;;;;9.97;5.30;;;;;;;1.13;100.00;100401.73;1729492;83;21016;-72
2021/01/22 08:10:47;;;;;;;12.93;6.43;;;;;;;1.14;100.00;100396.77;1750102;80;21026;-72
2021/01/22 08:13:15;;;;;;;11.97;6.30;;;;;;;1.15;100.00;100404.27;1754755;81;21206;-73
2021/01/22 08:15:44;;;;;;;14.20;6.57;;;;;;;1.15;100.00;100398.95;1743928;81;21013;-76
2021/01/22 08:18:14;;;;;;;10.33;5.10;;;;;;;1.17;100.00;100393.06;1785125;80;21056;-74
2021/01/22 08:20:51;;;;;;;10.27;4.60;;;;;;;1.19;100.00;100398.26;1758356;80;21132;-73
2021/01/22 08:23:21;;;;;;;10.13;4.67;;;;;;;1.20;100.00;100402.64;1789204;80;21005;-74
2021/01/22 08:25:49;;;;;;;9.97;5.30;;;;;;;1.20;100.00;100395.50;1774697;80;21383;-72
2021/01/22 08:28:18;;;;;;;7.93;4.43;;;;;;;1.21;100.00;100391.89;1769570;80;21029;-74
2021/01/22 08:30:48;;;;;;;10.30;5.33;;;;;;;1.23;100.00;100391.80;1777433;80;21546;-74
2021/01/22 08:33:16;;;;;;;10.23;6.03;;;;;;;1.26;100.00;100390.27;1751038;81;20984;-72
2021/01/22 08:35:45;;;;;;;9.93;6.20;;;;;;;1.25;100.00;100382.73;1763509;80;21004;-76
2021/01/22 08:38:13;;;;;;;9.13;4.53;;;;;;;1.26;100.00;100378.28;1782514;80;21371;-70
2021/01/22 08:40:44;;;;;;;10.53;6.03;;;;;;;1.27;100.00;100377.30;1776617;80;21059;-69
2021/01/22 08:43:12;;;;;;;13.53;5.60;;;;;;;1.28;100.00;100381.20;1771717;78;20969;-70
2021/01/22 08:45:41;;;;;;;6.73;4.07;;;;;;;1.30;100.00;100376.61;1781799;80;21626;-70
2021/01/22 08:48:10;;;;;;;7.53;4.47;;;;;;;1.31;100.00;100377.00;1775669;80;21555;-70
2021/01/22 08:50:41;;;;;;;13.30;5.77;;;;;;;1.34;100.00;100375.93;1733230;81;21517;-71
2021/01/22 08:53:10;;;;;;;14.07;6.30;;;;;;;1.36;100.00;100376.67;1767703;80;21036;-67
2021/01/22 08:55:40;;;;;;;11.93;5.83;;;;;;;1.36;100.00;100379.34;1824515;77;21143;-77
2021/01/22 08:58:11;;;;;;;11.37;5.63;;;;;;;1.37;100.00;100373.55;1829897;77;21000;-68
2021/01/22 09:00:40;;;;;;;12.40;5.47;;;;;;;1.38;100.00;100372.58;1817300;78;21011;-75
2021/01/22 09:03:22;;;;;;;13.27;6.23;;;;;;;1.38;100.00;100371.25;1796841;78;21637;-78
2021/01/22 09:05:54;;;;;;;8.83;4.93;;;;;;;1.36;100.00;100368.68;1822525;78;21202;-75
2021/01/22 09:08:24;;;;;;;8.67;4.87;;;;;;;1.39;100.00;100363.16;1804204;78;20952;-68
2021/01/22 09:10:52;;;;;;;9.37;5.07;;;;;;;1.40;100.00;100364.00;1791298;78;21256;-69
2021/01/22 09:13:23;;;;;;;9.73;4.50;;;;;;;1.40;100.00;100362.66;1810259;78;20997;-67
2021/01/22 09:16:04;;;;;;;10.80;5.00;;;;;;;1.40;100.00;100367.53;1819392;78;21649;-67
2021/01/22 09:18:33;;;;;;;10.00;5.33;;;;;;;1.40;100.00;100366.20;1802751;78;21757;-72
2021/01/22 09:21:12;;;;;;;9.17;5.30;;;;;;;1.39;100.00;100365.81;1805031;78;21128;-66
2021/01/22 09:23:56;;;;;;;10.70;5.40;;;;;;;1.41;100.00;100359.05;1812366;78;21482;-72
2021/01/22 09:26:24;;;;;;;10.27;5.63;;;;;;;1.42;100.00;100352.78;1806797;78;21109;-68
2021/01/22 09:28:52;;;;;;;6.90;3.93;;;;;;;1.41;100.00;100342.58;1809668;78;21653;-70
2021/01/22 09:31:20;;;;;;;8.87;4.53;;;;;;;1.44;100.00;100341.53;1820030;78;21101;-77
2021/01/22 09:33:48;;;;;;;12.00;5.97;;;;;;;1.47;100.00;100341.30;1821564;78;20946;-75
2021/01/22 09:36:18;;;;;;;10.13;5.13;;;;;;;1.51;100.00;100339.66;1818971;78;21593;-78
2021/01/22 09:38:46;;;;;;;13.60;6.20;;;;;;;1.55;100.00;100346.13;1817520;78;20989;-77
2021/01/22 09:41:14;;;;;;;12.87;5.20;;;;;;;1.59;100.00;100348.45;1814666;78;21645;-78
2021/01/22 09:43:42;;;;;;;9.40;5.60;;;;;;;1.61;100.00;100344.35;1777918;79;21077;-75
2021/01/22 09:46:10;;;;;;;7.83;4.83;;;;;;;1.63;100.00;100343.30;1798055;79;21260;-76
2021/01/22 09:48:39;;;;;;;12.20;5.43;;;;;;;1.68;100.00;100340.30;1802373;79;22566;-75
2021/01/22 09:51:07;;;;;;;13.60;7.30;;;;;;;1.68;100.00;100339.84;1806500;79;20997;-76
2021/01/22 09:53:35;;;;;;;15.07;7.00;;;;;;;1.70;100.00;100333.08;1801823;79;21393;-69
2021/01/22 09:56:05;;;;;;;19.90;9.43;;;;;;;1.71;100.00;100328.94;1793921;78;21083;-69
2021/01/22 09:58:33;;;;;;;18.63;8.57;;;;;;;1.72;100.00;100329.81;1805366;78;21009;-69
2021/01/22 10:01:01;;;;;;;15.93;8.10;;;;;;;1.74;100.00;100328.37;1810273;78;21186;-70
2021/01/22 10:03:30;;;;;;;15.00;6.43;;;;;;;1.73;100.00;100322.17;1767994;80;20932;-71
2021/01/22 10:05:58;;;;;;;12.87;6.53;;;;;;;1.76;100.00;100327.30;1756927;80;21787;-69
2021/01/22 10:08:29;;;;;;;12.50;6.57;;;;;;;1.77;100.00;100324.14;1774014;80;21107;-69
2021/01/22 10:10:57;;;;;;;9.47;5.90;;;;;;;1.78;100.00;100326.70;1767047;80;21546;-71
2021/01/22 10:13:25;;;;;;;12.23;6.60;;;;;;;1.78;100.00;100321.38;1766131;80;21037;-72
2021/01/22 10:15:53;;;;;;;15.17;5.90;;;;;;;1.79;100.00;100320.88;1772595;80;21586;-72
2021/01/22 10:18:21;;;;;;;12.57;6.13;;;;;;;1.81;100.00;100321.66;1775220;80;22689;-72
2021/01/22 10:20:50;;;;;;;10.77;6.00;;;;;;;1.79;100.00;100314.22;1763774;80;21603;-72
2021/01/22 10:23:19;;;;;;;13.73;6.77;;;;;;;1.80;100.00;100310.11;1764789;80;21082;-71
2021/01/22 10:25:47;;;;;;;14.60;6.00;;;;;;;1.82;100.00;100302.85;1766295;80;21043;-74
2021/01/22 10:28:15;;;;;;;11.77;5.67;;;;;;;1.84;100.00;100310.75;1758060;81;21004;-73
2021/01/22 10:30:49;;;;;;;13.70;6.10;;;;;;;1.84;100.00;100303.62;1759004;80;21244;-73
2021/01/22 10:33:17;;;;;;;15.87;6.10;;;;;;;1.82;100.00;100292.19;1756486;80;21003;-73
2021/01/22 10:35:46;;;;;;;10.83;5.40;;;;;;;1.82;100.00;100290.02;1746286;81;21048;-73
2021/01/22 10:38:15;;;;;;;7.90;4.93;;;;;;;1.82;100.00;100283.34;1749841;80;21005;-74
2021/01/22 10:40:43;;;;;;;7.47;4.90;;;;;;;1.83;100.00;100279.24;1763084;80;21032;-70
2021/01/22 10:43:11;;;;;;;10.63;5.30;;;;;;;1.85;100.00;100284.47;1772941;79;22754;-68
2021/01/22 10:45:40;;;;;;;15.30;6.43;;;;;;;1.87;100.00;100278.05;1789885;80;21018;-71
2021/01/22 10:48:08;;;;;;;12.27;7.70;;;;;;;1.87;100.00;100270.05;1787786;80;21578;-72
2021/01/22 10:50:36;;;;;;;20.30;8.30;;;;;;;1.90;100.00;100271.66;1782014;80;21559;-71
2021/01/22 10:53:04;;;;;;;15.27;7.07;;;;;;;1.92;100.00;100270.22;1785418;79;21005;-71
2021/01/22 10:55:32;;;;;;;9.00;4.63;;;;;;;1.90;100.00;100267.66;1777499;80;22005;-70
2021/01/22 10:58:01;;;;;;;13.00;6.50;;;;;;;1.89;100.00;100264.16;1768615;80;20996;-71
2021/01/22 11:00:29;;;;;;;7.27;4.73;;;;;;;1.90;100.00;100254.33;1779863;80;21018;-71
2021/01/22 11:02:57;;;;;;;10.57;4.73;;;;;;;1.88;100.00;100258.44;1772749;80;20957;-69
2021/01/22 11:05:27;;;;;;;12.57;6.30;;;;;;;1.89;100.00;100254.81;1785846;78;21506;-71
2021/01/22 11:07:55;;;;;;;13.60;5.73;;;;;;;1.89;100.00;100252.16;1779358;80;21494;-70
2021/01/22 11:10:23;;;;;;;8.53;5.60;;;;;;;1.91;100.00;100252.02;1762622;81;21036;-69
2021/01/22 11:12:50;;;;;;;11.57;5.87;;;;;;;1.90;100.00;100247.66;1762056;81;21183;-71
2021/01/22 11:15:19;;;;;;;10.20;4.90;;;;;;;1.90;100.00;100228.50;1762597;81;21025;-71
2021/01/22 11:17:47;;;;;;;17.03;6.67;;;;;;;1.89;100.00;100236.16;1762503;81;21076;-71
2021/01/22 11:20:17;;;;;;;20.93;8.57;;;;;;;1.89;100.00;100232.16;1764777;80;21823;-73
2021/01/22 11:22:46;;;;;;;23.03;8.23;;;;;;;1.90;100.00;100233.00;1780340;80;21052;-71
2021/01/22 11:25:14;;;;;;;17.77;7.17;;;;;;;1.90;100.00;100230.33;1762390;81;21159;-72
2021/01/22 11:27:43;;;;;;;11.47;6.30;;;;;;;1.89;100.00;100216.16;1764698;80;21082;-70
2021/01/22 11:30:34;;;;;;;9.87;5.33;;;;;;;1.92;100.00;100224.39;1782758;78;21040;-77
2021/01/22 11:33:02;;;;;;;12.87;5.83;;;;;;;1.91;100.00;100220.02;1712595;82;21380;-70
2021/01/22 11:35:34;;;;;;;8.27;4.87;;;;;;;1.89;100.00;100212.16;1719552;82;21594;-72
2021/01/22 11:38:02;;;;;;;18.27;8.13;;;;;;;1.90;100.00;100209.00;1742399;81;21032;-69
2021/01/22 11:40:31;;;;;;;13.77;6.70;;;;;;;1.88;100.00;100205.59;1743743;81;20968;-70